Energy Triton — 3FLG8 — position and weather

sailwx.info

Track history (hours):
 
Tides and Currents Weather Stations Pressure Air Temp Water Temp Dewpoint Dewpoint Depression Visibility Wind Speed Wind Dir Waves Ship Positions

Energy Triton

Last reported at 2018-Jan-08 15:21 UTC. Time now 2018-Jan-20 21:04 UTC.
Position N 41°17' E 140°11'.
Warning: this ship's position is 12 days out of date.

Length 229 m; draft 11.7 m.

Type: Cargo ship. MMSI: 373327000.

Date/timePositionNaut miles runAvg speedWind from/ knotsBaromVisibWave heightAir tempDewpointWater temp
2018-Jan-08 15:21N 41°17' E 140°11'410.8
2018-Jan-08 15:01N 41°19' E 140°15'510.2
2018-Jan-08 14:30N 41°22' E 140°20'611.5
2018-Jan-08 14:00N 41°26' E 140°26'511.0
2018-Jan-08 13:30N 41°29' E 140°33'611.2
2018-Jan-08 13:00N 41°32' E 140°39'611.5
2018-Jan-08 12:31N 41°35' E 140°45'511.0
2018-Jan-08 12:00N 41°37' E 140°52'510.8
2018-Jan-08 11:31N 41°37' E 140°59'510.7
2018-Jan-08 11:01N 41°36' E 141°06'611.6
2018-Jan-08 10:30N 41°36' E 141°14'611.5
2018-Jan-08 10:00N 41°36' E 141°22'510.5
2018-Jan-08 09:30N 41°36' E 141°29'510.2
2018-Jan-08 09:00N 41°36' E 141°35'  
Track history (hours):
 
Tides and Currents Weather Stations Pressure Air Temp Water Temp Dewpoint Dewpoint Depression Visibility Wind Speed Wind Dir Waves Ship Positions

Energy Triton

Last reported at 2018-Jan-08 15:21 UTC. Time now 2018-Jan-20 21:04 UTC.
Position N 41°17' E 140°11'.
Warning: this ship's position is 12 days out of date.

Length 229 m; draft 11.7 m.

Type: Cargo ship. MMSI: 373327000.

Date/timePositionNaut miles runAvg speedWind from/ knotsBaromVisibWave heightAir tempDewpointWater temp
2018-Jan-08 15:21N 41°17' E 140°11'410.8
2018-Jan-08 15:01N 41°19' E 140°15'510.2
2018-Jan-08 14:30N 41°22' E 140°20'611.5
2018-Jan-08 14:00N 41°26' E 140°26'511.0
2018-Jan-08 13:30N 41°29' E 140°33'611.2
2018-Jan-08 13:00N 41°32' E 140°39'611.5
2018-Jan-08 12:31N 41°35' E 140°45'511.0
2018-Jan-08 12:00N 41°37' E 140°52'510.8
2018-Jan-08 11:31N 41°37' E 140°59'510.7
2018-Jan-08 11:01N 41°36' E 141°06'611.6
2018-Jan-08 10:30N 41°36' E 141°14'611.5
2018-Jan-08 10:00N 41°36' E 141°22'510.5
2018-Jan-08 09:30N 41°36' E 141°29'510.2
2018-Jan-08 09:00N 41°36' E 141°35'  

Dump ship's entire track history